Araijuku, Japan

12:41 AM JST on December 19, 2018 (GMT +0900)
Ota-Ku Omori-kita D-HQ | | Change Station

Elev 62 ft 35.59 °N, 139.73 °E | Updated 25 seconds ago

Clear
Clear
44.6 °F
Feels Like 45 °F
N
1.7
Wind Variable Wind from SSW
Gusts 0.0 mph

Today
High -- | Low -- °F
--% Chance of Precip.
Yesterday
High -- | Low -- °F
Precip. -- in
Pressure 29.95 in
Visibility 6.2 miles
Clouds Few 3000 ft
Windchill 45 °F
Dew Point 36 °F
Humidity 73%
Rainfall 0.00 in
Snow Depth Not available.
6:45 AM 4:30 PM
Waxing Gibbous, 80% visible
METAR RJTT 181530Z 28003KT 250V310 9999 FEW030 08/02 Q1014 NOSIG RMK 1CU030 A2997
Pressure 29.95 in
Visibility 6.2 miles
Clouds Few 3000 ft
Windchill 45 °F
Dew Point 36 °F
Humidity 73%
Rainfall 0.00 in
Snow Depth Not available.
6:45 AM 4:30 PM
Waxing Gibbous, 80% visible
METAR RJTT 181530Z 28003KT 250V310 9999 FEW030 08/02 Q1014 NOSIG RMK 1CU030 A2997

Get Severe Weather Alerts

Thanks for signing up!

Be on the lookout for a verification email in your inbox.

You'll start receiving the daily forecast at 6 AM.

×

10-Day Weather Forecast

No radar image for this location.
×

Almanac

Astronomy

Dec. 19, 2018 Rise Set
Actual Time
Civil Twilight
Nautical Twilight
Astronomical Twilight
Moon
Length of Visible Light
Length of Day
Tomorrow will be .
, % of the Moon is Illuminated

Today's Extremes

Country Highs Country Lows

Community

WunderPhotos

Category 6

Welcome to Category 6. This is the collective home for Weather Underground's featured writeups by Dr. Jeff Masters (right), Bob Henson (left), Chris Burt, and other regular contributors.

Nearby

Air Quality

  Air Quality AQ Index Pollutant
Not available.

Snow Depth

Station Depth Elevation

Earthquake Activity

City Distance Mag. Time & Date
Minimum magnitude displayed is 2.5.

Coastal Water Temperatures

Place Temperature

Stations

Nearby Weather Stations

Station Location Temp. Windchill Dew Point Humidity Wind Precip. Elev Updated Type